Latest Coastal Weather Observations for Kowanyama

IDQ60701

Issued at 2:22 pm EST Saturday 21 January 2017 (issued every 10 minutes, with the page automatically refreshed every 10 minutes)

About coastal observations | Map of coastal stations | Coastal observations for QLD | Marine services | Other Formats
Station Details ID: 029038 Name: KOWANYAMA AIRPORT Lat: -15.48 Lon: 141.75 Height: 9.6 m
Data from the previous 72 hours. | See also: Recent months at Kowanyama
Date/Time
EST
Temp
°C
Wind Pressure Rain since
9am
mm
Weather Cloud Vis
km
Sea
Height
m
Swell
Dir  Spd
kts
Gust
kts
hPa Trend Height
m
Period
s
Dir
21/02:00pm 32.7 NNW 1 6 1007.1 - 0.0 - Partly cloudy 10 - - - -
21/01:30pm 31.4 NW 7 10 1007.7 - 0.0 - Partly cloudy 10 - - - -
21/01:00pm 31.7 NNW 6 9 1007.9 - 0.0 - Partly cloudy 10 - - - -
21/12:30pm 31.5 NW 6 9 1008.5 - 0.0 - Partly cloudy - - - - -
21/12:00pm 31.6 NNW 6 9 1009.0 - 0.0 - Mostly clear - - - - -
21/11:30am 30.9 WNW 5 7 1009.5 - 0.0 - Partly cloudy - - - - -
21/11:00am 29.8 WNW 6 9 1009.8 - 0.0 - Partly cloudy - - - - -
21/10:30am 28.8 WNW 8 10 1009.9 - 0.0 - Partly cloudy - - - - -
21/10:00am 30.1 NNE 1 4 1010.1 - 0.0 - Partly cloudy - - - - -
21/09:55am 30.2 CALM 0 1 1010.1 - 0.0 - Partly cloudy - - - - -
21/09:30am 29.3 N 3 6 1010.3 - 0.0 - Partly cloudy - - - - -
21/09:00am 28.3 NE 4 6 1010.3 - 35.8 - Cloudy - - - - -
21/08:30am 28.4 ENE 3 5 1010.2 - 35.8 - Partly cloudy - - - - -
21/08:04am 27.5 ENE 3 5 1010.1 - 35.8 - Partly cloudy - - - - -
21/08:00am 27.6 ENE 4 5 1010.0 - 35.8 - Partly cloudy - - - - -
21/07:30am 26.5 CALM 0 0 1009.9 - 35.8 - Partly cloudy - - - - -
21/07:00am 25.8 CALM 0 0 1009.8 - 35.8 - Partly cloudy - - - - -
21/06:30am 25.4 CALM 0 0 1009.3 - 35.8 - Partly cloudy - - - - -
21/06:00am 25.3 CALM 0 3 1008.8 - 35.8 - Mostly cloudy - - - - -
21/05:30am 25.5 N 2 4 1008.3 - 35.8 - Cloudy - - - - -
21/05:00am 25.4 N 1 4 1008.2 - 35.8 - Cloudy - - - - -
21/04:30am 25.4 NNE 2 4 1008.0 - 35.8 - Cloudy - - - - -
21/04:00am 25.3 CALM 0 0 1008.0 - 35.8 - Partly cloudy - - - - -
21/03:30am 25.5 CALM 0 3 1007.9 - 35.8 - - - - - - -
21/03:00am 25.7 N 3 6 1007.8 - 35.8 Recent precip. - - - - - -
21/02:30am 25.9 CALM 0 3 1007.8 - 35.8 - Partly cloudy - - - - -
21/02:00am 25.9 CALM 0 0 1007.9 - 35.4 - Partly cloudy - - - - -
21/01:30am 25.9 CALM 0 0 1008.0 - 35.4 - - - - - - -
21/01:00am 25.9 NNE 1 4 1008.0 - 35.4 - - - - - - -
21/12:30am 25.9 CALM 0 3 1008.2 - 35.4 - - - - - - -
21/12:00am 26.1 N 2 4 1008.4 - 35.4 - - - - - - -
 
Date/Time
EST
Temp
°C
Wind Pressure Rain since
9am
mm
Weather Cloud Vis
km
Sea
Height
m
Swell
Dir  Spd
kts
Gust
kts
hPa Trend Height
m
Period
s
Dir
20/11:30pm 26.2 CALM 0 0 1008.5 - 35.4 - - - - - - -
20/11:00pm 26.2 N 1 4 1008.3 - 35.4 - - - - - - -
20/10:30pm 26.3 CALM 0 0 1008.8 - 35.4 - - - - - - -
20/10:00pm 26.3 N 1 4 1008.5 - 35.4 - - - - - - -
20/09:30pm 26.4 N 2 4 1008.4 - 35.4 - - - - - - -
20/09:00pm 26.5 NNE 3 4 1008.2 - 35.4 - Mostly cloudy - - - - -
20/08:30pm 26.6 CALM 0 0 1008.0 - 35.4 - - - - - - -
20/08:00pm 26.8 CALM 0 0 1007.9 - 35.4 - - - - - - -
20/07:30pm 26.9 ENE 1 4 1007.6 - 35.4 - - - - - - -
20/07:00pm 27.6 CALM 0 0 1007.4 - 35.4 - Partly cloudy 10 - - - -
20/06:39pm 27.5 CALM 0 0 1007.6 - 35.4 - Partly cloudy 10 - - - -
20/06:30pm 27.8 CALM 0 0 1007.5 - 35.4 - Partly cloudy 10 - - - -
20/06:16pm 27.8 CALM 0 0 1007.5 - 35.4 - - 4 - - - -
20/06:00pm 27.4 CALM 0 0 1007.4 - 35.4 Rain Mostly cloudy 10 - - - -
20/05:30pm 27.2 NNW 1 5 1007.1 - 35.4 - Partly cloudy 10 - - - -
20/05:00pm 26.7 NNW 5 9 1006.7 - 35.4 - Partly cloudy 7 - - - -
20/04:30pm 26.5 N 6 9 1006.7 - 35.0 - Partly cloudy 10 - - - -
20/04:00pm 26.4 N 5 9 1006.8 - 35.0 - Partly cloudy 10 - - - -
20/03:30pm 25.4 CALM 0 0 1006.9 - 35.0 - Partly cloudy 10 - - - -
20/03:18pm 25.0 ENE 2 4 1007.2 - 35.0 - Partly cloudy 8 - - - -
20/03:00pm 24.3 NW 9 13 1007.6 - 33.6 Showers Cloudy 0.5 - - - -
20/02:30pm 25.0 NNE 5 8 1007.3 - 9.6 - Partly cloudy 5 - - - -
20/02:14pm 25.0 S 8 14 1007.2 - 7.6 - Partly cloudy 5 - - - -
20/02:07pm 25.9 SSE 6 9 1007.4 - 6.6 - Partly cloudy 10 - - - -
20/02:00pm 27.4 ESE 5 9 1007.3 - 6.4 - Partly cloudy 10 - - - -
20/01:44pm 26.7 ENE 7 12 1007.7 - 1.6 - Partly cloudy 5 - - - -
20/01:30pm 28.2 ENE 8 12 1007.4 - 0.0 - Partly cloudy 10 - - - -
20/01:00pm 31.8 WNW 4 8 1007.5 - 0.0 - Partly cloudy 10 - - - -
20/12:30pm 31.1 W 5 8 1008.1 - 0.0 - Partly cloudy 10 - - - -
20/12:00pm 30.9 W 7 10 1008.3 - 0.0 - Mostly cloudy 10 - - - -
20/11:30am 30.0 W 8 11 1008.6 - 0.0 - Partly cloudy 10 - - - -
20/11:00am 31.7 SSW 1 5 1008.8 - 0.0 - Partly cloudy - - - - -
20/10:30am 30.6 WSW 1 4 1009.3 - 0.0 - Partly cloudy - - - - -
20/10:00am 29.7 CALM 0 2 1009.7 - 0.0 - Partly cloudy - - - - -
20/09:30am 28.5 ENE 2 5 1009.6 - 0.0 - - - - - - -
20/09:00am 27.8 NE 3 5 1009.8 - 22.4 - Mostly cloudy - - - - -
20/08:30am 27.4 NE 3 5 1009.8 - 22.4 - - - - - - -
20/08:00am 26.6 NE 5 6 1009.6 - 22.4 - - - - - - -
20/07:30am 25.9 NE 5 6 1009.6 - 22.4 - - - - - - -
20/07:00am 25.3 ENE 4 6 1009.2 - 22.4 - - - - - - -
20/06:30am 24.6 NE 4 5 1008.8 - 22.4 - - - - - - -
20/06:00am 24.5 ENE 3 4 1008.5 - 22.4 - Cloudy - - - - -
20/05:30am 24.4 NE 3 5 1008.1 - 22.4 - - - - - - -
20/05:00am 24.4 N 3 5 1007.7 - 22.4 - - - - - - -
20/04:30am 24.3 NE 2 4 1007.3 - 22.4 - - - - - - -
20/04:00am 24.3 ENE 1 3 1007.3 - 22.4 - - - - - - -
20/03:30am 24.3 CALM 0 0 1007.3 - 22.4 - - - - - - -
20/03:00am 24.2 NNE 5 6 1007.0 - 22.4 - - - - - - -
20/02:30am 24.1 NNE 3 4 1007.1 - 22.4 - - - - - - -
20/02:00am 24.2 CALM 0 0 1007.2 - 22.4 - - - - - - -
20/01:30am 24.2 NNE 3 5 1007.5 - 22.4 - - - - - - -
20/01:00am 24.1 CALM 0 3 1007.9 - 22.4 - - - - - - -
20/12:30am 24.1 N 2 4 1008.4 - 22.4 - - - - - - -
20/12:00am 24.2 N 2 4 1008.6 - 22.4 - - - - - - -
 
Date/Time
EST
Temp
°C
Wind Pressure Rain since
9am
mm
Weather Cloud Vis
km
Sea
Height
m
Swell
Dir  Spd
kts
Gust
kts
hPa Trend Height
m
Period
s
Dir
19/11:30pm 24.2 CALM 0 0 1008.9 - 22.4 - - - - - - -
19/11:00pm 24.5 N 3 5 1008.9 - 22.4 - - - - - - -
19/10:30pm 24.6 N 3 4 1008.9 - 22.4 - - - - - - -
19/10:00pm 24.9 N 3 5 1008.8 - 22.4 - - - - - - -
19/09:30pm 25.2 N 5 8 1008.6 - 22.4 - - - - - - -
19/09:00pm 25.7 N 7 12 1008.6 - 22.4 - - - - - - -
19/08:30pm 27.2 NNW 4 8 1008.3 - 22.4 - Partly cloudy - - - - -
19/08:00pm 27.1 N 3 4 1008.1 - 22.4 - Partly cloudy - - - - -
19/07:30pm 27.2 CALM 0 0 1008.1 - 22.4 - Partly cloudy - - - - -
19/07:00pm 27.9 NNW 3 5 1007.9 - 22.4 - Partly cloudy 10 - - - -
19/06:30pm 28.3 NW 4 6 1007.3 - 22.4 - Cloudy 10 - - - -
19/06:00pm 28.7 NW 5 7 1007.3 - 22.4 - Cloudy 10 - - - -
19/05:30pm 28.9 WNW 5 7 1006.8 - 22.4 - Partly cloudy 10 - - - -
19/05:00pm 28.8 WNW 4 5 1006.6 - 22.4 - Partly cloudy 10 - - - -
19/04:30pm 27.5 W 5 7 1006.7 - 22.4 - Cloudy 10 - - - -
19/04:00pm 26.7 CALM 0 0 1007.2 - 22.4 - Partly cloudy 10 - - - -
19/03:30pm 26.3 N 2 4 1007.7 - 22.2 - Partly cloudy 10 - - - -
19/03:00pm 26.5 N 2 6 1008.0 - 21.8 Showers Cloudy 10 - - - -
19/02:51pm 26.4 WNW 5 7 1007.9 - 21.6 - Partly cloudy 10 - - - -
19/02:30pm 25.8 WNW 11 15 1008.1 - 18.8 - Partly cloudy 1 - - - -
19/02:03pm 27.1 WSW 13 17 1008.4 - 0.2 - Partly cloudy 4 - - - -
19/02:00pm 27.8 WSW 13 17 1008.2 - 0.0 - Partly cloudy 10 - - - -
19/01:30pm 30.4 WNW 9 11 1008.6 - 0.0 - Partly cloudy 10 - - - -
19/01:00pm 32.1 E 1 4 1009.1 - 0.0 - Partly cloudy 10 - - - -
19/12:30pm 32.4 SW 2 7 1009.5 - 0.0 - Partly cloudy 10 - - - -
19/12:00pm 31.6 SSE 1 5 1009.8 - 0.0 - Cloudy 10 - - - -
19/11:30am 31.6 SE 3 7 1010.3 - 0.0 - Partly cloudy 10 - - - -
19/11:00am 31.1 S 1 5 1010.6 - 0.0 - Partly cloudy - - - - -
19/10:30am 30.3 SSW 3 5 1011.0 - 0.0 - Partly cloudy - - - - -
19/10:00am 30.0 ESE 3 6 1011.3 - 0.0 - Partly cloudy - - - - -
19/09:30am 29.6 E 2 4 1011.2 - 0.0 - Partly cloudy - - - - -
19/09:00am 28.2 N 1 4 1011.4 - 18.4 - Mostly cloudy - - - - -
19/08:55am 27.9 NNE 2 5 1011.4 - 18.4 - Partly cloudy - - - - -
19/08:30am 27.9 NNE 1 4 1011.7 - 18.4 - Partly cloudy - - - - -
19/08:25am 27.1 NNE 2 5 1011.7 - 18.4 - Partly cloudy - - - - -
19/08:00am 26.4 NE 3 5 1011.8 - 18.4 - Partly cloudy - - - - -
19/07:30am 26.2 CALM 0 0 1011.5 - 18.4 - Partly cloudy - - - - -
19/07:00am 26.0 N 3 5 1011.2 - 18.4 - Cloudy - - - - -
19/06:30am 25.9 ENE 2 4 1010.9 - 18.4 - Partly cloudy - - - - -
19/06:00am 26.0 CALM 0 3 1010.6 - 18.4 - Cloudy - - - - -
19/05:30am 25.8 E 4 5 1010.1 - 18.4 - Cloudy - - - - -
19/05:02am 26.0 SE 4 5 1010.0 - 18.4 - Partly cloudy - - - - -
19/05:00am 25.9 SE 4 5 1010.0 - 18.4 - Partly cloudy - - - - -
19/04:51am 26.0 ESE 4 6 1009.9 - 18.4 - Partly cloudy - - - - -
19/04:30am 26.2 ESE 4 6 1009.7 - 18.4 - Partly cloudy - - - - -
19/04:00am 26.1 E 4 5 1009.6 - 18.4 - Partly cloudy - - - - -
19/03:48am 26.4 ESE 3 5 1009.7 - 18.4 - Partly cloudy - - - - -
19/03:30am 26.2 CALM 0 0 1009.7 - 18.4 - Partly cloudy - - - - -
19/03:24am 26.1 CALM 0 0 1009.7 - 18.4 - Partly cloudy - - - - -
19/03:00am 26.1 NE 3 5 1009.5 - 18.4 - Cloudy - - - - -
19/02:30am 26.1 CALM 0 0 1009.3 - 18.4 - Partly cloudy - - - - -
19/02:08am 26.1 CALM 0 0 1009.7 - 18.4 - Partly cloudy - - - - -
19/02:00am 26.1 CALM 0 0 1009.8 - 18.4 - Partly cloudy - - - - -
19/01:30am 26.1 ESE 2 5 1010.2 - 18.4 - Partly cloudy - - - - -
19/01:00am 26.2 SE 2 3 1010.6 - 18.4 - Partly cloudy - - - - -
19/12:30am 26.2 SE 3 3 1010.7 - 18.2 - - - - - - -
19/12:00am 26.2 CALM 0 0 1010.7 - 18.0 Recent precip. Cloudy - - - - -
 
Date/Time
EST
Temp
°C
Wind Pressure Rain since
9am
mm
Weather Cloud Vis
km
Sea
Height
m
Swell
Dir  Spd
kts
Gust
kts
hPa Trend Height
m
Period
s
Dir
18/11:30pm 26.1 NE 4 5 1011.1 - 17.6 - Partly cloudy - - - - -
18/11:00pm 26.1 NE 5 6 1011.4 - 17.2 - - - - - - -
18/10:30pm 26.4 NE 1 4 1011.7 - 16.8 - Partly cloudy - - - - -
18/10:00pm 27.1 CALM 0 0 1011.8 - 15.0 - - - - - - -
18/09:30pm 27.0 ENE 4 4 1011.9 - 14.6 - Partly cloudy - - - - -
18/09:00pm 26.9 CALM 0 0 1010.9 - 14.6 - Cloudy - - - - -
18/08:30pm 27.0 CALM 0 0 1010.6 - 14.6 - Cloudy 10 - - - -
18/08:00pm 26.9 SSE 4 5 1010.9 - 14.6 - Partly cloudy 10 - - - -
18/07:30pm 27.2 WSW 3 5 1010.4 - 14.6 - Partly cloudy 10 - - - -
18/07:00pm 27.2 WSW 6 9 1010.4 - 14.6 - Partly cloudy 10 - - - -
18/06:30pm 26.7 WSW 8 12 1009.7 - 14.6 - Partly cloudy 10 - - - -
18/06:00pm 27.7 SW 8 13 1009.9 - 13.8 - Cloudy 10 - - - -
18/05:30pm 28.3 WNW 8 11 1009.5 - 13.8 - Partly cloudy 10 - - - -
18/05:00pm 28.8 WNW 8 12 1008.6 - 13.8 - Partly cloudy 10 - - - -
18/04:39pm 28.4 NW 6 8 1008.5 - 13.8 - Partly cloudy 10 - - - -
18/04:30pm 27.8 NW 6 8 1008.6 - 13.8 - Partly cloudy 6 - - - -
18/04:21pm 26.8 NW 7 9 1008.7 - 13.4 - Partly cloudy 5 - - - -
18/04:18pm 26.6 WNW 7 10 1008.8 - 13.2 - Partly cloudy 7 - - - -
18/04:00pm 26.7 W 6 8 1009.0 - 12.2 - Partly cloudy 5 - - - -
18/03:31pm 27.4 ENE 6 9 1009.1 - 2.8 - Partly cloudy 4 - - - -
18/03:30pm 27.6 ENE 6 9 1009.1 - 1.6 - Partly cloudy 6 - - - -
18/03:00pm 32.5 W 3 9 1008.8 - 0.0 - Cloudy 10 - - - -
18/02:30pm 31.3 W 5 9 1009.1 - 0.0 - Partly cloudy 10 - - - -

Other Formats:

Comma delimited format used in spreadsheet applications
http://www.bom.gov.au/fwo/IDQ60701/IDQ60701.94268.axf

JavaScript Object Notation format (JSON) in row-major order
http://www.bom.gov.au/fwo/IDQ60701/IDQ60701.94268.json